Aeroporto :
LOGIN :

Iscrizione | Disclaimer

   EN    FR    IT 

 










Sommario :    VFR   VFR Marginale   IFR   IFR Intensivo   IFR Molto Intensivo
Visibilità : 
Base nubi : 
>= 8 km
>= 3000ft
5 / 8 km
1000 / 3000 ft
1500m / 5 km
500 / 1000 ft
800 / 1500m
200 / 500 ft
< 800m
< 200 ft
Simboli :   Temporali  Nebbia  Neve Forte  Precipitazioni Forti  Vento > 20 kt
SIGMETs :   Varie  Temporali  Ghiacco  Turbolenza  Onda orograficha  Ceneri Vulcaniche






- Altitudine del aeroporto : 348 ft
- Codice IATA : LDV


LFRJ - Landivisiau

ULTIMO METAR :
  • 222330Z AUTO 10005KT 7000 -DZ OVC009 09/08 Q0981

METARs OBSOLETI :
  • 222300Z AUTO 08005KT 9999 OVC009 09/08 Q0981
  • 222230Z AUTO 07006KT 9999 OVC010 09/08 Q0981
  • 222200Z AUTO 08009KT 9999 BKN011 OVC016 09/08 Q0981
  • 222130Z AUTO 09010KT 9000 -RA BKN013/// BKN018/// BKN023/// ///TCU 09/08 Q0981
  • 222100Z AUTO 10010KT 9999 RA BKN013 OVC025 09/07 Q0981

TAF TAF LFRJ
Valido dal 22 a 18 ore il 23 a 03 ore UTC


221700Z 2218/2303 10012KT 9999 DZ OVC011
TEMPO 2218/2221 4000 RA BKN008
TEMPO 2221/2303 2000 OVC004



MetMap, La meteo Aeronautica in un colpo d'occhio ! - Copyright ORBIFLY Dicembre 2007 - Disclaimer

ORBIFLY MET'MAP TEAM :

Programmazione e sviluppo : Alexandra Zaïnal
Concezione e sviluppo : Baudouin d'Aumeries
Co-Programmazione e sviluppo : Marc-Olivier Méhu
Supporto tecnico e logistico : Manuel Goepfert
Aiuto per la traduzione : Arnaldo La Scala

Contatto : metmap@orbifly.com




FONTI E CREDITI :

   NOAA